CheckWX is a tool to help pilots better visualize weather data.  It is not intended as a substitute for an official pre-flight weather briefing.

12:27:24 UTC

KACJ METAR
Jimmy Carter Regional Airport
Americus, Georgia, USA
Current

32 mins ago

KACJ 261155Z AUTO 33003KT 10SM CLR 13/11 A3006 RMK AO2
Observed
Mar-26 @ 11:55 UTC
Wind
  • 330° at 3 KTS
Visibility
10 SM
Flight Rules
VFR
Cloud Levels
  • Clear skies
Temperature
13°C / 55°F
Dewpoint
11°C / 52°F
Humidity
88%
Altimeter
30.06" Hg
Pressure
1017.92 hPa
Previous

52 mins ago

KACJ 261135Z AUTO 34003KT 10SM CLR 13/11 A3005 RMK AO2
Observed
Mar-26 @ 11:35 UTC
Wind
  • 340° at 3 KTS
Visibility
10 SM
Flight Rules
VFR
Cloud Levels
  • Clear skies
Temperature
13°C / 55°F
Dewpoint
11°C / 52°F
Humidity
88%
Altimeter
30.05" Hg
Pressure
1017.62 hPa
Previous

1 hour ago

KACJ 261115Z AUTO 34004KT 10SM CLR 13/11 A3005 RMK AO2
Observed
Mar-26 @ 11:15 UTC
Wind
  • 340° at 4 KTS
Visibility
10 SM
Flight Rules
VFR
Cloud Levels
  • Clear skies
Temperature
13°C / 55°F
Dewpoint
11°C / 52°F
Humidity
88%
Altimeter
30.05" Hg
Pressure
1017.62 hPa